Terminal Aerodrome Forecast
Issued by NWS

Home | Current Version | Previous Version | Graphics & Text | Print | Product List | Glossary On
Versions: 1 2 3 4 5 6 7 8 9 10 11 12 13 14 15 16
000
FTUS43 KICT 281326 AAA
TAFRSL
TAF AMD
KRSL 281326Z 2813/2912 VRB03KT P6SM SCT025 BKN035
      TEMPO 2813/2814 BKN025
     FM281500 28007KT P6SM SCT035
     FM281700 30008KT P6SM SCT050
     FM282300 36012KT P6SM VCSH OVC020
     FM290200 02015G23KT P6SM VCSH OVC015
     FM290600 02015G23KT 5SM RA OVC006=

USA.gov is the U.S. government's official web portal to all federal, state and local government web resources and services.